Middletown, CT (06459)

3:26 PM EDT on July 29, 2016 (GMT -0400)
Middletown Framing | | Change Station

Elev 56 ft 41.56 °N, 72.65 °W | Updated 9 minutes ago

Scattered Clouds
Scattered Clouds
87.1 °F
Feels Like 89 °F
N
2.0
Wind Variable Wind from NW
Gusts 4.0 mph

Today
High -- | Low -- °F
--% Chance of Precip.
Yesterday
High -- | Low -- °F
Precip. -- in
Pressure 29.82 in
Visibility 10.0 miles
Clouds Scattered Clouds 4000 ft
Heat Index 89 °F
Dew Point 66 °F
Humidity 49%
Rainfall 0.20 in
Snow Depth Not available.
5:42 AM 8:10 PM
Waning Crescent, 19% visible
METAR KMMK 291853Z AUTO VRB04KT 10SM SCT040 30/18 A2983 RMK AO2 SLP097 T03000183 TSNO
Pressure 29.82 in
Visibility 10.0 miles
Clouds Scattered Clouds 4000 ft
Heat Index 89 °F
Dew Point 66 °F
Humidity 49%
Rainfall 0.20 in
Snow Depth Not available.
5:42 AM 8:10 PM
Waning Crescent, 19% visible
METAR KMMK 291853Z AUTO VRB04KT 10SM SCT040 30/18 A2983 RMK AO2 SLP097 T03000183 TSNO

10-Day Weather Forecast

Almanac

Astronomy

Jul. 29, 2016 Rise Set
Actual Time
Civil Twilight
Nautical Twilight
Astronomical Twilight
Moon
Length of Visible Light
Length of Day
Tomorrow will be .
, % of the Moon is Illuminated

Today's Extremes

State Highs State Lows

Community

WunderPhotos

Upload Photos

1,928,399 photos uploaded!

WunderBlog® & News

Nearby

Air Quality

  Air Quality AQ Index Pollutant
Not available.

Snow Depth

Station Depth Elevation

Earthquake Activity

City Distance Mag. Time & Date
Minimum magnitude displayed is 2.5.

Coastal Water Temperatures

Place Temperature

Stations

Nearby Weather Stations

Station Location Temp. Windchill Dew Point Humidity Wind Precip. Elev Updated Type
                   

Watches & Warnings

There are currently no watches in effect.